createdAt,value
2022-12-31T00:00:13.315Z,4.11
2022-12-31T00:01:15.582Z,4.11
2022-12-31T00:02:17.354Z,4.14
2022-12-31T00:03:19.155Z,4.11
2022-12-31T00:04:20.832Z,4.12
2022-12-31T00:05:22.791Z,4.12
2022-12-31T00:06:28.288Z,4.14
2022-12-31T00:07:29.948Z,4.15
2022-12-31T00:08:31.630Z,4.12
2022-12-31T00:09:33.242Z,4.08
2022-12-31T00:10:41.273Z,4.12
2022-12-31T00:11:42.992Z,4.11
2022-12-31T00:12:44.604Z,4.11
2022-12-31T00:13:46.896Z,4.14
2022-12-31T00:14:48.526Z,4.14
2022-12-31T00:15:50.227Z,4.11
2022-12-31T00:16:51.853Z,4.15
2022-12-31T00:17:53.459Z,4.11
2022-12-31T00:18:56.741Z,4.12
2022-12-31T00:19:58.383Z,4.12
2022-12-31T00:21:02.117Z,4.12
2022-12-31T00:22:03.710Z,4.11
2022-12-31T00:23:05.309Z,4.09
2022-12-31T00:24:07.289Z,4.11
2022-12-31T00:25:09.436Z,4.11
2022-12-31T00:26:15.979Z,4.12
2022-12-31T00:27:17.675Z,4.09
2022-12-31T00:28:19.290Z,4.11
2022-12-31T00:29:20.921Z,4.09
2022-12-31T00:30:22.519Z,4.09
2022-12-31T00:31:26.280Z,4.06
2022-12-31T00:32:28.572Z,4.08
2022-12-31T00:33:30.145Z,4.08
2022-12-31T00:34:31.723Z,4.08
2022-12-31T00:35:34.769Z,4.12
2022-12-31T00:36:37.972Z,4.05
2022-12-31T00:37:39.669Z,4.06
2022-12-31T00:38:42.527Z,4.06
2022-12-31T00:39:44.171Z,4.04
2022-12-31T00:40:45.756Z,4.09
2022-12-31T00:41:47.376Z,4.08
2022-12-31T00:42:49.043Z,4.08
2022-12-31T00:43:50.693Z,4.05
2022-12-31T00:44:52.311Z,4.06
2022-12-31T00:45:54.229Z,4.06
2022-12-31T00:46:56.748Z,4.04
2022-12-31T00:47:58.402Z,4.04
2022-12-31T00:49:00.026Z,4.01
2022-12-31T00:50:01.833Z,4.01
2022-12-31T00:51:04.202Z,3.99
2022-12-31T00:52:05.801Z,4.02
2022-12-31T00:53:07.410Z,4.02
2022-12-31T00:54:10.116Z,4.01
2022-12-31T00:55:11.775Z,4.01
2022-12-31T00:56:15.358Z,3.99
2022-12-31T00:57:16.958Z,4.02
2022-12-31T00:58:18.578Z,4.01
2022-12-31T00:59:20.171Z,4.04
2022-12-31T01:00:21.866Z,4.01
2022-12-31T01:01:28.347Z,4.04
2022-12-31T01:02:30.116Z,4.02
2022-12-31T01:03:31.831Z,4.02
2022-12-31T01:04:33.455Z,4.02
2022-12-31T01:05:35.580Z,4.05
2022-12-31T01:06:37.347Z,4.06
2022-12-31T01:07:39.005Z,4.06
2022-12-31T01:08:40.590Z,4.05
2022-12-31T01:09:42.329Z,4.02
2022-12-31T01:11:07.556Z,4.04
2022-12-31T01:12:09.181Z,4.01
2022-12-31T01:13:10.920Z,4.04
2022-12-31T01:14:15.180Z,4.02
2022-12-31T01:15:17.832Z,4.05
2022-12-31T01:16:21.374Z,4.05
2022-12-31T01:17:22.985Z,4.06
2022-12-31T01:18:24.600Z,4.06
2022-12-31T01:19:27.879Z,4.06
2022-12-31T01:20:29.543Z,4.08
2022-12-31T01:21:31.349Z,4.08
2022-12-31T01:22:32.921Z,4.09
2022-12-31T01:23:34.656Z,4.09
2022-12-31T01:24:36.253Z,4.12
2022-12-31T01:25:38.919Z,4.09
2022-12-31T01:26:40.685Z,4.09
2022-12-31T01:27:42.278Z,4.11
2022-12-31T01:28:43.938Z,4.11
2022-12-31T01:29:45.535Z,4.14
2022-12-31T01:30:47.167Z,4.14
2022-12-31T01:31:48.856Z,4.15
2022-12-31T01:32:50.467Z,4.16
2022-12-31T01:33:52.354Z,4.15
2022-12-31T01:34:53.976Z,4.18
2022-12-31T01:35:55.605Z,4.18
2022-12-31T01:36:57.302Z,4.19
2022-12-31T01:37:58.891Z,4.22
2022-12-31T01:39:01.205Z,4.21
2022-12-31T01:40:02.805Z,4.22
2022-12-31T01:41:04.745Z,4.22
2022-12-31T01:42:06.722Z,4.21
2022-12-31T01:43:18.897Z,4.22
2022-12-31T01:44:26.371Z,4.22
2022-12-31T01:45:27.978Z,4.24
2022-12-31T01:46:39.928Z,4.25
2022-12-31T01:47:59.723Z,4.22
2022-12-31T01:49:11.338Z,4.22
2022-12-31T01:50:21.680Z,4.22
2022-12-31T01:51:24.034Z,4.22
2022-12-31T01:52:28.764Z,4.24
2022-12-31T01:53:30.355Z,4.25
2022-12-31T01:54:32.603Z,4.26
2022-12-31T01:55:42.220Z,4.26
2022-12-31T01:56:43.860Z,4.24
2022-12-31T01:57:46.277Z,4.26
2022-12-31T01:58:48.576Z,4.25
2022-12-31T01:59:50.164Z,4.26
2022-12-31T02:00:51.939Z,4.25
2022-12-31T02:01:53.764Z,4.25
2022-12-31T02:02:55.522Z,4.24
2022-12-31T02:03:57.403Z,4.24
2022-12-31T02:04:59.792Z,4.24
2022-12-31T02:06:16.861Z,4.22
2022-12-31T02:07:18.478Z,4.24
2022-12-31T02:08:20.165Z,4.24
2022-12-31T02:09:21.832Z,4.26
2022-12-31T02:10:23.513Z,4.25
2022-12-31T02:11:34.510Z,4.29
2022-12-31T02:12:36.156Z,4.29
2022-12-31T02:13:37.765Z,4.28
2022-12-31T02:14:40.288Z,4.28
2022-12-31T02:16:03.283Z,4.29
2022-12-31T02:17:17.350Z,4.29
2022-12-31T02:18:56.328Z,4.31
2022-12-31T02:20:16.168Z,4.29
2022-12-31T02:21:17.734Z,4.29
2022-12-31T02:22:38.112Z,4.28
2022-12-31T02:24:10.588Z,4.32
2022-12-31T02:25:43.196Z,4.34
2022-12-31T02:27:01.393Z,4.35
2022-12-31T02:28:18.336Z,4.36
2022-12-31T02:29:35.570Z,4.32
2022-12-31T02:30:37.407Z,4.32
2022-12-31T02:31:57.615Z,4.35
2022-12-31T02:33:41.475Z,4.39
2022-12-31T02:34:55.252Z,4.39
2022-12-31T02:35:58.909Z,4.44
2022-12-31T02:37:01.187Z,4.42
2022-12-31T02:38:08.048Z,4.41
2022-12-31T02:39:09.902Z,4.44
2022-12-31T02:40:13.468Z,4.42
2022-12-31T02:41:35.977Z,4.41
2022-12-31T02:42:37.580Z,4.39
2022-12-31T02:43:46.759Z,4.39
2022-12-31T02:44:48.369Z,4.42
2022-12-31T02:45:55.445Z,4.39
2022-12-31T02:47:23.584Z,4.42
2022-12-31T02:48:46.053Z,4.44
2022-12-31T02:50:24.590Z,4.44
2022-12-31T02:51:44.199Z,4.41
2022-12-31T02:53:12.996Z,4.41
2022-12-31T02:54:35.852Z,4.42
2022-12-31T02:55:41.352Z,4.42
2022-12-31T02:56:42.893Z,4.38
2022-12-31T02:58:07.843Z,4.42
2022-12-31T02:59:51.482Z,4.42
2022-12-31T03:01:13.693Z,4.45
2022-12-31T03:02:16.677Z,4.48
2022-12-31T03:03:19.770Z,4.48
2022-12-31T03:04:34.137Z,4.49
2022-12-31T03:05:40.458Z,4.45
2022-12-31T03:06:42.127Z,4.44
2022-12-31T03:07:44.000Z,4.48
2022-12-31T03:09:04.026Z,4.49
2022-12-31T03:10:06.187Z,4.44
2022-12-31T03:11:27.736Z,4.44
2022-12-31T03:12:49.805Z,4.44
2022-12-31T03:13:51.400Z,4.45
2022-12-31T03:14:53.098Z,4.44
2022-12-31T03:15:54.866Z,4.41
2022-12-31T03:16:56.491Z,4.44
2022-12-31T03:18:08.441Z,4.42
2022-12-31T03:19:28.735Z,4.45
2022-12-31T03:21:06.978Z,4.44
2022-12-31T03:22:30.050Z,4.44
2022-12-31T03:23:42.370Z,4.41
2022-12-31T03:25:02.605Z,4.42
2022-12-31T03:26:11.111Z,4.42
2022-12-31T03:27:12.708Z,4.44
2022-12-31T03:28:16.199Z,4.44
2022-12-31T03:29:17.803Z,4.39
2022-12-31T03:30:19.878Z,4.44
2022-12-31T03:31:21.705Z,4.44
2022-12-31T03:32:23.327Z,4.45
2022-12-31T03:33:25.007Z,4.46
2022-12-31T03:34:26.672Z,4.46
2022-12-31T03:35:28.838Z,4.46
2022-12-31T03:36:30.432Z,4.45
2022-12-31T03:37:32.057Z,4.46
2022-12-31T03:38:33.726Z,4.44
2022-12-31T03:39:35.361Z,4.45
2022-12-31T03:40:41.301Z,4.46
2022-12-31T03:41:42.876Z,4.46
2022-12-31T03:42:44.492Z,4.46
2022-12-31T03:43:46.385Z,4.48
2022-12-31T03:44:48.032Z,4.48
2022-12-31T03:45:52.120Z,4.46
2022-12-31T03:46:54.496Z,4.45
2022-12-31T03:47:56.086Z,4.49
2022-12-31T03:48:58.696Z,4.50
2022-12-31T03:50:00.280Z,4.48
2022-12-31T03:51:01.888Z,4.50
2022-12-31T03:52:03.731Z,4.50
2022-12-31T03:53:05.536Z,4.50
2022-12-31T03:54:07.129Z,4.49
2022-12-31T03:55:09.544Z,4.55
2022-12-31T03:56:11.142Z,4.53
2022-12-31T03:57:12.837Z,4.55
2022-12-31T03:58:14.449Z,4.58
2022-12-31T03:59:16.061Z,4.55
2022-12-31T04:00:19.150Z,4.59
2022-12-31T04:01:24.384Z,4.60
2022-12-31T04:02:28.873Z,4.60
2022-12-31T04:03:31.145Z,4.60
2022-12-31T04:04:32.801Z,4.56
2022-12-31T04:05:34.377Z,4.58
2022-12-31T04:06:36.012Z,4.58
2022-12-31T04:07:37.805Z,4.58
2022-12-31T04:08:39.416Z,4.58
2022-12-31T04:09:41.074Z,4.59
2022-12-31T04:10:42.680Z,4.55
2022-12-31T04:11:44.298Z,4.58
2022-12-31T04:12:46.043Z,4.56
2022-12-31T04:13:47.727Z,4.55
2022-12-31T04:14:49.315Z,4.55
2022-12-31T04:15:51.940Z,4.50
2022-12-31T04:16:53.575Z,4.53
2022-12-31T04:17:55.176Z,4.52
2022-12-31T04:18:56.836Z,4.52
2022-12-31T04:19:58.418Z,4.55
2022-12-31T04:21:03.745Z,4.55
2022-12-31T04:22:05.442Z,4.53
2022-12-31T04:23:07.028Z,4.53
2022-12-31T04:24:08.750Z,4.55
2022-12-31T04:25:11.532Z,4.53
2022-12-31T04:26:13.389Z,4.49
2022-12-31T04:27:15.081Z,4.55
2022-12-31T04:28:16.687Z,4.55
2022-12-31T04:29:18.368Z,4.55
2022-12-31T04:30:20.103Z,4.52
2022-12-31T04:31:21.718Z,4.52
2022-12-31T04:32:23.365Z,4.55
2022-12-31T04:33:24.966Z,4.52
2022-12-31T04:34:26.595Z,4.52
2022-12-31T04:35:28.239Z,4.52
2022-12-31T04:36:29.915Z,4.50
2022-12-31T04:37:31.531Z,4.48
2022-12-31T04:38:33.535Z,4.50
2022-12-31T04:39:35.144Z,4.48
2022-12-31T04:40:56.695Z,4.49
2022-12-31T04:41:58.292Z,4.49
2022-12-31T04:42:59.957Z,4.52
2022-12-31T04:44:01.626Z,4.52
2022-12-31T04:45:04.088Z,4.49
2022-12-31T04:46:05.862Z,4.53
2022-12-31T04:47:07.788Z,4.52
2022-12-31T04:48:10.832Z,4.55
2022-12-31T04:49:12.531Z,4.55
2022-12-31T04:50:14.203Z,4.56
2022-12-31T04:51:15.965Z,4.55
2022-12-31T04:52:17.567Z,4.58
2022-12-31T04:53:19.172Z,4.58
2022-12-31T04:54:20.779Z,4.58
2022-12-31T04:55:22.414Z,4.58
2022-12-31T04:56:24.262Z,4.56
2022-12-31T04:57:25.865Z,4.56
2022-12-31T04:58:27.642Z,4.53
2022-12-31T04:59:29.398Z,4.55
2022-12-31T05:00:30.991Z,4.60
2022-12-31T05:01:33.481Z,4.56
2022-12-31T05:02:35.388Z,4.56
2022-12-31T05:03:37.145Z,4.56
2022-12-31T05:04:38.725Z,4.58
2022-12-31T05:05:42.776Z,4.59
2022-12-31T05:06:44.426Z,4.63
2022-12-31T05:07:46.072Z,4.67
2022-12-31T05:08:47.913Z,4.72
2022-12-31T05:09:49.497Z,4.73
2022-12-31T05:10:51.086Z,4.81
2022-12-31T05:11:52.670Z,4.80
2022-12-31T05:12:54.323Z,4.93
2022-12-31T05:13:56.014Z,4.96
2022-12-31T05:14:57.620Z,4.90
2022-12-31T05:15:59.223Z,4.93
2022-12-31T05:17:01.205Z,4.89
2022-12-31T05:18:03.410Z,4.86
2022-12-31T05:19:06.492Z,4.83
2022-12-31T05:20:08.557Z,4.84
2022-12-31T05:21:10.193Z,4.83
2022-12-31T05:22:29.717Z,4.83
2022-12-31T05:23:31.416Z,4.86
2022-12-31T05:24:33.030Z,4.86
2022-12-31T05:25:34.675Z,4.86
2022-12-31T05:26:36.290Z,4.90
2022-12-31T05:27:38.000Z,4.87
2022-12-31T05:28:39.804Z,4.89
2022-12-31T05:29:41.371Z,4.93
2022-12-31T05:30:43.401Z,4.91
2022-12-31T05:31:45.081Z,4.96
2022-12-31T05:32:46.817Z,4.93
2022-12-31T05:33:48.481Z,4.91
2022-12-31T05:34:50.079Z,4.91
2022-12-31T05:35:51.699Z,4.94
2022-12-31T05:36:53.306Z,4.91
2022-12-31T05:37:55.057Z,4.89
2022-12-31T05:38:56.789Z,4.86
2022-12-31T05:39:58.440Z,4.87
2022-12-31T05:41:03.880Z,4.87
2022-12-31T05:42:05.488Z,4.91
2022-12-31T05:43:07.163Z,4.93
2022-12-31T05:44:10.651Z,4.91
2022-12-31T05:45:13.603Z,4.91
2022-12-31T05:46:16.371Z,4.89
2022-12-31T05:47:18.318Z,4.86
2022-12-31T05:48:19.911Z,4.87
2022-12-31T05:49:21.630Z,4.89
2022-12-31T05:50:23.224Z,4.97
2022-12-31T05:51:24.818Z,4.99
2022-12-31T05:52:26.406Z,4.97
2022-12-31T05:53:27.999Z,4.96
2022-12-31T05:54:29.662Z,4.96
2022-12-31T05:55:31.268Z,4.96
2022-12-31T05:56:33.166Z,4.96
2022-12-31T05:57:34.760Z,4.94
2022-12-31T05:58:36.406Z,4.91
2022-12-31T05:59:38.044Z,4.94
2022-12-31T06:00:39.848Z,4.93
2022-12-31T06:01:41.510Z,4.93
2022-12-31T06:02:43.328Z,4.96
2022-12-31T06:03:45.629Z,4.99
2022-12-31T06:04:47.394Z,4.99
2022-12-31T06:05:49.063Z,5.00
2022-12-31T06:06:50.686Z,5.01
2022-12-31T06:07:52.299Z,5.03
2022-12-31T06:08:53.883Z,5.00
2022-12-31T06:09:55.574Z,5.03
2022-12-31T06:10:57.177Z,5.06
2022-12-31T06:11:58.765Z,5.11
2022-12-31T06:13:00.365Z,5.13
2022-12-31T06:14:01.938Z,5.14
2022-12-31T06:15:04.048Z,5.16
2022-12-31T06:16:07.333Z,5.13
2022-12-31T06:17:08.961Z,5.11
2022-12-31T06:18:10.633Z,5.10
2022-12-31T06:19:12.229Z,5.10
2022-12-31T06:20:13.876Z,5.16
2022-12-31T06:21:15.996Z,5.18
2022-12-31T06:22:17.651Z,5.20
2022-12-31T06:23:19.244Z,5.21
2022-12-31T06:24:20.848Z,5.27
2022-12-31T06:25:22.427Z,5.23
2022-12-31T06:26:24.083Z,5.21
2022-12-31T06:27:25.684Z,5.20
2022-12-31T06:28:27.274Z,5.20
2022-12-31T06:29:28.874Z,5.18
2022-12-31T06:30:30.476Z,5.18
2022-12-31T06:31:32.235Z,5.17
2022-12-31T06:32:35.018Z,5.16
2022-12-31T06:33:36.730Z,5.14
2022-12-31T06:34:38.673Z,5.07
2022-12-31T06:35:40.326Z,5.03
2022-12-31T06:36:42.365Z,4.99
2022-12-31T06:37:43.966Z,4.99
2022-12-31T06:38:45.702Z,4.99
2022-12-31T06:39:47.312Z,4.97
2022-12-31T06:40:48.932Z,4.97
2022-12-31T06:41:50.506Z,5.01
2022-12-31T06:42:59.541Z,5.04
2022-12-31T06:44:01.763Z,5.04
2022-12-31T06:45:03.452Z,5.04
2022-12-31T06:46:07.715Z,5.01
2022-12-31T06:47:09.461Z,4.97
2022-12-31T06:48:11.332Z,4.94
2022-12-31T06:49:13.175Z,4.93
2022-12-31T06:50:14.837Z,4.93
2022-12-31T06:51:20.267Z,4.96
2022-12-31T06:52:21.908Z,5.00
2022-12-31T06:53:23.507Z,4.97
2022-12-31T06:54:25.101Z,4.99
2022-12-31T06:55:27.099Z,5.00
2022-12-31T06:56:34.419Z,4.96
2022-12-31T06:57:36.707Z,4.99
2022-12-31T06:58:38.633Z,4.97
2022-12-31T06:59:40.595Z,5.01
2022-12-31T07:00:48.455Z,5.04
2022-12-31T07:02:28.536Z,5.01
2022-12-31T07:04:00.941Z,5.13
2022-12-31T07:05:27.010Z,5.10
2022-12-31T07:06:34.756Z,5.10
2022-12-31T07:08:06.441Z,5.11
2022-12-31T07:09:30.527Z,5.06
2022-12-31T07:10:49.804Z,5.04
2022-12-31T07:12:07.789Z,5.01
2022-12-31T07:13:51.437Z,4.96
2022-12-31T07:14:55.643Z,4.94
2022-12-31T07:16:38.801Z,4.96
2022-12-31T07:17:52.738Z,4.99
2022-12-31T07:19:08.269Z,5.06
2022-12-31T07:20:12.000Z,5.03
2022-12-31T07:21:15.370Z,5.04
2022-12-31T07:22:17.384Z,5.01
2022-12-31T07:23:19.319Z,5.01
2022-12-31T07:24:21.335Z,4.99
2022-12-31T07:25:23.628Z,4.99
2022-12-31T07:26:35.627Z,4.97
2022-12-31T07:27:59.159Z,4.96
2022-12-31T07:29:17.165Z,4.96
2022-12-31T07:30:23.277Z,4.91
2022-12-31T07:32:07.553Z,4.94
2022-12-31T07:33:43.651Z,4.90
2022-12-31T07:35:18.421Z,4.91
2022-12-31T07:36:30.487Z,4.93
2022-12-31T07:37:37.773Z,4.90
2022-12-31T07:39:11.719Z,4.89
2022-12-31T07:40:15.948Z,4.90
2022-12-31T07:41:20.536Z,4.86
2022-12-31T07:42:42.462Z,4.91
2022-12-31T07:44:04.230Z,4.93
2022-12-31T07:45:16.981Z,4.96
2022-12-31T07:46:37.113Z,4.99
2022-12-31T07:47:39.077Z,5.03
2022-12-31T07:48:41.002Z,5.04
2022-12-31T07:49:42.684Z,5.03
2022-12-31T07:50:44.593Z,5.01
2022-12-31T07:51:46.383Z,5.03
2022-12-31T07:52:48.391Z,5.01
2022-12-31T07:53:49.986Z,5.01
2022-12-31T07:54:51.711Z,5.01
2022-12-31T07:56:00.731Z,5.06
2022-12-31T07:57:02.391Z,5.09
2022-12-31T07:58:10.957Z,5.11
2022-12-31T07:59:46.113Z,5.13
2022-12-31T08:00:47.848Z,5.14
2022-12-31T08:02:19.059Z,5.16
2022-12-31T08:03:35.977Z,5.18
2022-12-31T08:04:52.474Z,5.21
2022-12-31T08:06:09.488Z,5.17
2022-12-31T08:07:18.276Z,5.13
2022-12-31T08:09:08.295Z,5.16
2022-12-31T08:10:48.481Z,5.09
2022-12-31T08:11:56.775Z,5.14
2022-12-31T08:13:02.579Z,5.14
2022-12-31T08:14:04.310Z,5.13
2022-12-31T08:15:13.554Z,5.14
2022-12-31T08:16:15.370Z,5.14
2022-12-31T08:17:18.239Z,5.13
2022-12-31T08:18:20.109Z,5.14
2022-12-31T08:19:25.928Z,5.14
2022-12-31T08:20:27.818Z,5.17
2022-12-31T08:21:57.540Z,5.17
2022-12-31T08:23:17.677Z,5.26
2022-12-31T08:24:35.831Z,5.28
2022-12-31T08:26:02.180Z,5.30
2022-12-31T08:27:06.518Z,5.24
2022-12-31T08:28:08.159Z,5.24
2022-12-31T08:29:57.617Z,5.26
2022-12-31T08:31:09.041Z,5.30
2022-12-31T08:32:37.086Z,5.27
2022-12-31T08:34:10.929Z,5.28
2022-12-31T08:35:21.642Z,5.30
2022-12-31T08:36:44.172Z,5.32
2022-12-31T08:38:15.836Z,5.37
2022-12-31T08:39:27.984Z,5.38
2022-12-31T08:40:46.761Z,5.41
2022-12-31T08:41:49.564Z,5.42
2022-12-31T08:43:25.313Z,5.44
2022-12-31T08:44:48.036Z,5.50
2022-12-31T08:45:51.715Z,5.51
2022-12-31T08:47:02.564Z,5.51
2022-12-31T08:48:25.450Z,5.51
2022-12-31T08:49:27.633Z,5.50
2022-12-31T08:50:29.697Z,5.55
2022-12-31T08:51:31.542Z,5.58
2022-12-31T08:52:33.442Z,5.55
2022-12-31T08:53:35.387Z,5.62
2022-12-31T08:54:37.366Z,5.63
2022-12-31T08:55:39.610Z,5.63
2022-12-31T08:56:50.520Z,5.68
2022-12-31T08:58:04.131Z,5.68
2022-12-31T08:59:08.488Z,5.68
2022-12-31T09:00:14.105Z,5.69
2022-12-31T09:01:19.002Z,5.69
2022-12-31T09:02:32.557Z,5.71
2022-12-31T09:03:52.709Z,5.73
2022-12-31T09:05:13.015Z,5.75
2022-12-31T09:06:28.247Z,5.73
2022-12-31T09:07:40.984Z,5.76
2022-12-31T09:08:48.351Z,5.76
2022-12-31T09:10:18.199Z,5.76
2022-12-31T09:11:31.513Z,5.68
2022-12-31T09:12:37.115Z,5.69
2022-12-31T09:14:11.011Z,5.65
2022-12-31T09:15:17.045Z,5.65
2022-12-31T09:16:19.595Z,5.61
2022-12-31T09:17:33.115Z,5.59
2022-12-31T09:18:35.196Z,5.62
2022-12-31T09:19:36.828Z,5.61
2022-12-31T09:20:43.419Z,5.61
2022-12-31T09:21:45.901Z,5.61
2022-12-31T09:22:47.785Z,5.61
2022-12-31T09:23:49.812Z,5.63
2022-12-31T09:24:51.652Z,5.68
2022-12-31T09:25:56.731Z,5.66
2022-12-31T09:27:23.844Z,5.69
2022-12-31T09:28:56.020Z,5.73
2022-12-31T09:30:14.372Z,5.76
2022-12-31T09:31:17.793Z,5.79
2022-12-31T09:32:37.977Z,5.81
2022-12-31T09:33:56.344Z,5.83
2022-12-31T09:35:18.515Z,5.86
2022-12-31T09:36:25.916Z,5.88
2022-12-31T09:37:38.827Z,5.93
2022-12-31T09:39:15.623Z,5.92
2022-12-31T09:40:29.010Z,5.93
2022-12-31T09:41:48.541Z,5.98
2022-12-31T09:43:11.886Z,5.98
2022-12-31T09:44:51.904Z,5.98
2022-12-31T09:45:59.317Z,6.01
2022-12-31T09:47:13.139Z,6.03
2022-12-31T09:48:14.772Z,6.05
2022-12-31T09:49:37.783Z,6.03
2022-12-31T09:50:42.488Z,6.05
2022-12-31T09:52:09.793Z,6.10
2022-12-31T09:53:18.990Z,6.10
2022-12-31T09:54:29.073Z,6.12
2022-12-31T09:55:34.969Z,6.14
2022-12-31T09:56:39.930Z,6.16
2022-12-31T09:57:48.456Z,6.16
2022-12-31T09:59:20.769Z,6.16
2022-12-31T10:00:22.940Z,6.17
2022-12-31T10:01:37.431Z,6.14
2022-12-31T10:03:22.058Z,6.17
2022-12-31T10:04:38.965Z,6.20
2022-12-31T10:06:01.424Z,6.26
2022-12-31T10:07:30.321Z,6.26
2022-12-31T10:08:39.098Z,6.26
2022-12-31T10:09:58.495Z,6.34
2022-12-31T10:11:05.540Z,6.30
2022-12-31T10:12:40.238Z,6.32
2022-12-31T10:14:03.248Z,6.34
2022-12-31T10:15:35.646Z,6.33
2022-12-31T10:16:55.760Z,6.36
2022-12-31T10:18:34.709Z,6.41
2022-12-31T10:20:05.655Z,6.51
2022-12-31T10:21:09.895Z,6.51
2022-12-31T10:22:53.403Z,6.57
2022-12-31T10:23:59.547Z,6.58
2022-12-31T10:25:05.710Z,6.58
2022-12-31T10:26:38.096Z,6.61
2022-12-31T10:27:53.185Z,6.63
2022-12-31T10:29:30.376Z,6.60
2022-12-31T10:30:34.245Z,6.60
2022-12-31T10:31:53.840Z,6.64
2022-12-31T10:33:37.130Z,6.61
2022-12-31T10:34:44.718Z,6.60
2022-12-31T10:35:54.373Z,6.58
2022-12-31T10:37:09.539Z,6.58
2022-12-31T10:38:32.085Z,6.58
2022-12-31T10:39:36.753Z,6.58
2022-12-31T10:41:15.892Z,6.57
2022-12-31T10:42:46.052Z,6.61
2022-12-31T10:43:59.515Z,6.64
2022-12-31T10:45:28.785Z,6.65
2022-12-31T10:46:49.499Z,6.68
2022-12-31T10:47:59.709Z,6.67
2022-12-31T10:49:08.369Z,6.70
2022-12-31T10:50:50.571Z,6.74
2022-12-31T10:52:14.069Z,6.78
2022-12-31T10:53:37.580Z,6.75
2022-12-31T10:54:42.090Z,6.81
2022-12-31T10:56:26.353Z,6.80
2022-12-31T10:57:39.786Z,6.83
2022-12-31T10:59:02.976Z,6.83
2022-12-31T11:00:23.560Z,6.84
2022-12-31T11:01:32.989Z,6.81
2022-12-31T11:02:40.924Z,6.85
2022-12-31T11:04:21.598Z,6.83
2022-12-31T11:05:43.243Z,6.87
2022-12-31T11:07:22.628Z,6.89
2022-12-31T11:08:37.182Z,6.88
2022-12-31T11:09:50.849Z,6.88
2022-12-31T11:11:07.698Z,6.87
2022-12-31T11:12:33.990Z,6.91
2022-12-31T11:13:50.796Z,6.89
2022-12-31T11:15:21.422Z,6.91
2022-12-31T11:16:57.622Z,6.94
2022-12-31T11:18:21.605Z,6.95
2022-12-31T11:19:29.166Z,6.94
2022-12-31T11:21:00.404Z,6.98
2022-12-31T11:23:16.069Z,6.97
2022-12-31T11:25:11.788Z,6.95
2022-12-31T11:26:19.564Z,6.97
2022-12-31T11:27:57.511Z,7.01
2022-12-31T11:29:19.151Z,6.99
2022-12-31T11:30:48.764Z,7.04
2022-12-31T11:32:21.319Z,7.02
2022-12-31T11:33:45.450Z,7.01
2022-12-31T11:35:24.001Z,7.02
2022-12-31T11:37:04.551Z,7.01
2022-12-31T11:38:38.924Z,6.99
2022-12-31T11:39:55.657Z,7.01
2022-12-31T11:41:39.831Z,7.05
2022-12-31T11:42:46.628Z,7.04
2022-12-31T11:44:18.136Z,7.08
2022-12-31T11:45:58.678Z,7.09
2022-12-31T11:47:38.087Z,7.16
2022-12-31T11:49:16.573Z,7.16
2022-12-31T11:50:23.503Z,7.16
2022-12-31T11:51:57.526Z,7.18
2022-12-31T11:53:25.752Z,7.19
2022-12-31T11:54:51.706Z,7.20
2022-12-31T11:56:00.694Z,7.22
2022-12-31T11:57:24.755Z,7.32
2022-12-31T11:58:29.252Z,7.35
2022-12-31T11:59:30.861Z,7.36
2022-12-31T12:00:32.938Z,7.40
2022-12-31T12:01:42.668Z,7.45
2022-12-31T12:03:06.141Z,7.49
2022-12-31T12:04:09.446Z,7.50
2022-12-31T12:05:14.499Z,7.56
2022-12-31T12:06:17.744Z,7.58
2022-12-31T12:07:19.450Z,7.59
2022-12-31T12:08:21.104Z,7.60
2022-12-31T12:09:30.276Z,7.60
2022-12-31T12:10:42.136Z,7.63
2022-12-31T12:11:43.840Z,7.65
2022-12-31T12:12:45.511Z,7.66
2022-12-31T12:13:47.634Z,7.69
2022-12-31T12:14:53.662Z,7.67
2022-12-31T12:16:00.225Z,7.65
2022-12-31T12:17:05.250Z,7.69
2022-12-31T12:18:09.418Z,7.71
2022-12-31T12:19:17.960Z,7.76
2022-12-31T12:20:27.052Z,7.76
2022-12-31T12:21:28.666Z,7.81
2022-12-31T12:22:30.746Z,7.81
2022-12-31T12:23:33.039Z,7.84
2022-12-31T12:24:34.633Z,7.84
2022-12-31T12:25:38.900Z,7.84
2022-12-31T12:26:41.931Z,7.81
2022-12-31T12:27:43.662Z,7.81
2022-12-31T12:28:45.765Z,7.79
2022-12-31T12:29:48.079Z,7.80
2022-12-31T12:30:57.029Z,7.81
2022-12-31T12:31:59.644Z,7.81
2022-12-31T12:33:02.291Z,7.86
2022-12-31T12:34:04.162Z,7.84
2022-12-31T12:35:16.446Z,7.84
2022-12-31T12:36:22.070Z,7.84
2022-12-31T12:37:27.916Z,7.90
2022-12-31T12:38:30.459Z,7.93
2022-12-31T12:39:34.191Z,7.90
2022-12-31T12:40:35.792Z,7.93
2022-12-31T12:41:37.403Z,7.97
2022-12-31T12:42:49.775Z,7.95
2022-12-31T12:44:14.808Z,7.94
2022-12-31T12:45:19.005Z,7.94
2022-12-31T12:46:32.179Z,7.95
2022-12-31T12:47:33.894Z,8.00
2022-12-31T12:48:42.488Z,8.00
2022-12-31T12:49:48.302Z,8.00
2022-12-31T12:50:50.036Z,8.00
2022-12-31T12:51:54.498Z,8.01
2022-12-31T12:53:12.615Z,8.00
2022-12-31T12:54:37.056Z,8.01
2022-12-31T12:55:47.441Z,8.04
2022-12-31T12:56:52.142Z,8.00
2022-12-31T12:58:19.035Z,8.01
2022-12-31T12:59:58.552Z,8.00
2022-12-31T13:01:11.172Z,8.00
2022-12-31T13:02:49.542Z,8.04
2022-12-31T13:04:37.657Z,8.04
2022-12-31T13:05:51.395Z,8.08
2022-12-31T13:06:58.859Z,8.08
2022-12-31T13:08:00.475Z,8.12
2022-12-31T13:09:25.316Z,8.11
2022-12-31T13:10:49.151Z,8.15
2022-12-31T13:12:19.908Z,8.14
2022-12-31T13:13:25.443Z,8.12
2022-12-31T13:15:03.737Z,8.10
2022-12-31T13:16:17.909Z,8.11
2022-12-31T13:17:40.506Z,8.14
2022-12-31T13:19:00.793Z,8.15
2022-12-31T13:20:23.337Z,8.18
2022-12-31T13:21:49.629Z,8.20
2022-12-31T13:23:28.527Z,8.21
2022-12-31T13:24:45.056Z,8.24
2022-12-31T13:26:09.886Z,8.30
2022-12-31T13:27:17.232Z,8.31
2022-12-31T13:28:18.878Z,8.34
2022-12-31T13:29:22.589Z,8.38
2022-12-31T13:30:38.113Z,8.41
2022-12-31T13:31:39.766Z,8.41
2022-12-31T13:32:46.566Z,8.42
2022-12-31T13:33:55.432Z,8.41
2022-12-31T13:35:07.928Z,8.41
2022-12-31T13:36:14.120Z,8.41
2022-12-31T13:37:30.737Z,8.41
2022-12-31T13:38:38.607Z,8.45
2022-12-31T13:39:40.936Z,8.45
2022-12-31T13:40:57.733Z,8.45
2022-12-31T13:42:05.428Z,8.48
2022-12-31T13:43:29.179Z,8.48
2022-12-31T13:44:51.858Z,8.51
2022-12-31T13:46:14.784Z,8.49
2022-12-31T13:47:45.643Z,8.51
2022-12-31T13:49:09.323Z,8.49
2022-12-31T13:50:25.060Z,8.52
2022-12-31T13:51:45.025Z,8.52
2022-12-31T13:52:53.841Z,8.52
2022-12-31T13:54:07.120Z,8.54
2022-12-31T13:55:13.948Z,8.55
2022-12-31T13:56:19.470Z,8.56
2022-12-31T13:57:39.622Z,8.56
2022-12-31T13:58:46.748Z,8.55
2022-12-31T13:59:50.320Z,8.59
2022-12-31T14:01:04.214Z,8.59
2022-12-31T14:02:15.798Z,8.59
2022-12-31T14:03:35.867Z,8.59
2022-12-31T14:04:42.649Z,8.62
2022-12-31T14:05:49.820Z,8.63
2022-12-31T14:07:38.974Z,8.63
2022-12-31T14:08:45.573Z,8.62
2022-12-31T14:09:47.178Z,8.63
2022-12-31T14:11:02.665Z,8.61
2022-12-31T14:12:29.187Z,8.61
2022-12-31T14:13:56.059Z,8.61
2022-12-31T14:15:09.486Z,8.62
2022-12-31T14:16:35.635Z,8.62
2022-12-31T14:17:52.099Z,8.63
2022-12-31T14:19:14.823Z,8.62
2022-12-31T14:20:31.060Z,8.65
2022-12-31T14:21:46.116Z,8.62
2022-12-31T14:23:20.280Z,8.61
2022-12-31T14:24:47.766Z,8.56
2022-12-31T14:26:03.263Z,8.58
2022-12-31T14:27:07.823Z,8.58
2022-12-31T14:28:16.025Z,8.55
2022-12-31T14:29:59.170Z,8.55
2022-12-31T14:31:28.241Z,8.54
2022-12-31T14:32:51.247Z,8.52
2022-12-31T14:34:04.972Z,8.51
2022-12-31T14:35:35.545Z,8.48
2022-12-31T14:36:58.607Z,8.44
2022-12-31T14:38:20.533Z,8.44
2022-12-31T14:39:44.118Z,8.40
2022-12-31T14:40:48.579Z,8.40
2022-12-31T14:42:02.520Z,8.35
2022-12-31T14:43:15.905Z,8.35
2022-12-31T14:44:37.568Z,8.32
2022-12-31T14:46:00.722Z,8.30
2022-12-31T14:47:22.221Z,8.24
2022-12-31T14:48:34.147Z,8.22
2022-12-31T14:50:09.769Z,8.24
2022-12-31T14:51:12.338Z,8.21
2022-12-31T14:52:20.502Z,8.18
2022-12-31T14:53:26.118Z,8.15
2022-12-31T14:54:29.507Z,8.18
2022-12-31T14:55:38.098Z,8.12
2022-12-31T14:56:44.193Z,8.12
2022-12-31T14:58:25.804Z,8.12
2022-12-31T14:59:27.393Z,8.08
2022-12-31T15:00:38.354Z,8.07
2022-12-31T15:01:45.004Z,8.10
2022-12-31T15:03:00.347Z,8.05
2022-12-31T15:04:02.023Z,8.02
2022-12-31T15:05:12.953Z,8.02
2022-12-31T15:06:23.809Z,8.01
2022-12-31T15:07:31.989Z,7.97
2022-12-31T15:08:39.207Z,7.98
2022-12-31T15:09:46.703Z,7.97
2022-12-31T15:10:57.357Z,7.94
2022-12-31T15:12:05.351Z,7.93
2022-12-31T15:13:07.374Z,7.94
2022-12-31T15:14:22.833Z,7.91
2022-12-31T15:16:09.420Z,7.87
2022-12-31T15:17:46.583Z,7.89
2022-12-31T15:19:05.173Z,7.84
2022-12-31T15:20:18.165Z,7.83
2022-12-31T15:21:55.949Z,7.80
2022-12-31T15:22:57.560Z,7.80
2022-12-31T15:23:59.196Z,7.79
2022-12-31T15:25:01.218Z,7.76
2022-12-31T15:26:03.268Z,7.74
2022-12-31T15:27:05.912Z,7.71
2022-12-31T15:28:09.291Z,7.70
2022-12-31T15:29:25.441Z,7.69
2022-12-31T15:30:37.802Z,7.67
2022-12-31T15:31:45.216Z,7.66
2022-12-31T15:32:46.811Z,7.65
2022-12-31T15:34:20.008Z,7.60